sensor_id;sensor_type;location;lat;lon;timestamp;P1;durP1;ratioP1;P2;durP2;ratioP2
14153;SDS011;7157;53.144;7.570;2023-03-18T00:04:29;6.88;;;3.22;;
14153;SDS011;7157;53.144;7.570;2023-03-18T00:14:33;7.47;;;2.88;;
14153;SDS011;7157;53.144;7.570;2023-03-18T00:24:37;7.20;;;2.35;;
14153;SDS011;7157;53.144;7.570;2023-03-18T00:34:41;7.47;;;2.50;;
14153;SDS011;7157;53.144;7.570;2023-03-18T00:44:45;9.10;;;3.05;;
14153;SDS011;7157;53.144;7.570;2023-03-18T00:54:47;6.45;;;2.40;;
14153;SDS011;7157;53.144;7.570;2023-03-18T01:04:51;10.52;;;2.50;;
14153;SDS011;7157;53.144;7.570;2023-03-18T01:14:54;6.15;;;2.70;;
14153;SDS011;7157;53.144;7.570;2023-03-18T01:24:59;6.90;;;2.45;;
14153;SDS011;7157;53.144;7.570;2023-03-18T01:35:02;6.45;;;2.80;;
14153;SDS011;7157;53.144;7.570;2023-03-18T01:45:18;9.70;;;2.70;;
14153;SDS011;7157;53.144;7.570;2023-03-18T01:55:24;6.43;;;2.85;;
14153;SDS011;7157;53.144;7.570;2023-03-18T02:05:30;6.72;;;2.80;;
14153;SDS011;7157;53.144;7.570;2023-03-18T02:15:34;7.32;;;3.15;;
14153;SDS011;7157;53.144;7.570;2023-03-18T02:25:48;7.63;;;3.05;;
14153;SDS011;7157;53.144;7.570;2023-03-18T02:46:05;6.78;;;3.00;;
14153;SDS011;7157;53.144;7.570;2023-03-18T02:56:16;8.13;;;3.28;;
14153;SDS011;7157;53.144;7.570;2023-03-18T03:06:19;7.68;;;3.95;;
14153;SDS011;7157;53.144;7.570;2023-03-18T03:16:23;10.10;;;4.35;;
14153;SDS011;7157;53.144;7.570;2023-03-18T03:26:26;12.15;;;4.65;;
14153;SDS011;7157;53.144;7.570;2023-03-18T03:36:30;10.25;;;4.90;;
14153;SDS011;7157;53.144;7.570;2023-03-18T03:46:33;9.65;;;4.30;;
14153;SDS011;7157;53.144;7.570;2023-03-18T03:56:38;7.28;;;4.65;;
14153;SDS011;7157;53.144;7.570;2023-03-18T04:06:41;10.77;;;4.38;;
14153;SDS011;7157;53.144;7.570;2023-03-18T04:16:45;8.82;;;5.03;;
14153;SDS011;7157;53.144;7.570;2023-03-18T04:26:47;11.13;;;4.97;;
14153;SDS011;7157;53.144;7.570;2023-03-18T04:36:52;9.38;;;5.47;;
14153;SDS011;7157;53.144;7.570;2023-03-18T04:46:55;14.00;;;6.72;;
14153;SDS011;7157;53.144;7.570;2023-03-18T04:56:59;14.02;;;6.05;;
14153;SDS011;7157;53.144;7.570;2023-03-18T05:07:02;13.90;;;6.00;;
14153;SDS011;7157;53.144;7.570;2023-03-18T05:17:07;13.07;;;6.70;;
14153;SDS011;7157;53.144;7.570;2023-03-18T05:27:16;13.30;;;7.57;;
14153;SDS011;7157;53.144;7.570;2023-03-18T05:37:22;15.20;;;7.82;;
14153;SDS011;7157;53.144;7.570;2023-03-18T05:47:25;14.20;;;7.70;;
14153;SDS011;7157;53.144;7.570;2023-03-18T05:57:30;17.45;;;8.25;;
14153;SDS011;7157;53.144;7.570;2023-03-18T06:07:32;15.02;;;8.65;;
14153;SDS011;7157;53.144;7.570;2023-03-18T06:17:36;17.20;;;8.80;;
14153;SDS011;7157;53.144;7.570;2023-03-18T06:27:39;19.25;;;10.35;;
14153;SDS011;7157;53.144;7.570;2023-03-18T06:37:44;19.80;;;9.73;;
14153;SDS011;7157;53.144;7.570;2023-03-18T06:47:47;15.27;;;8.40;;
14153;SDS011;7157;53.144;7.570;2023-03-18T06:57:51;15.95;;;9.23;;
14153;SDS011;7157;53.144;7.570;2023-03-18T07:07:55;17.02;;;8.95;;
14153;SDS011;7157;53.144;7.570;2023-03-18T07:17:59;17.55;;;9.65;;
14153;SDS011;7157;53.144;7.570;2023-03-18T07:28:05;15.57;;;9.40;;
14153;SDS011;7157;53.144;7.570;2023-03-18T07:38:09;14.07;;;8.25;;
14153;SDS011;7157;53.144;7.570;2023-03-18T07:48:12;15.13;;;8.52;;
14153;SDS011;7157;53.144;7.570;2023-03-18T07:58:16;14.25;;;7.53;;
14153;SDS011;7157;53.144;7.570;2023-03-18T08:08:19;15.07;;;8.55;;
14153;SDS011;7157;53.144;7.570;2023-03-18T08:18:24;17.70;;;8.80;;
14153;SDS011;7157;53.144;7.570;2023-03-18T08:28:27;20.88;;;10.02;;
14153;SDS011;7157;53.144;7.570;2023-03-18T08:38:31;20.90;;;9.02;;
14153;SDS011;7157;53.144;7.570;2023-03-18T08:48:34;22.33;;;10.48;;
14153;SDS011;7157;53.144;7.570;2023-03-18T08:58:39;20.30;;;9.98;;
14153;SDS011;7157;53.144;7.570;2023-03-18T09:08:42;19.23;;;9.75;;
14153;SDS011;7157;53.144;7.570;2023-03-18T09:18:50;19.50;;;10.48;;
14153;SDS011;7157;53.144;7.570;2023-03-18T09:28:53;17.90;;;8.77;;
14153;SDS011;7157;53.144;7.570;2023-03-18T09:38:57;21.70;;;10.10;;
14153;SDS011;7157;53.144;7.570;2023-03-18T09:49:04;16.40;;;9.73;;
14153;SDS011;7157;53.144;7.570;2023-03-18T09:59:18;17.05;;;9.73;;
14153;SDS011;7157;53.144;7.570;2023-03-18T10:09:26;19.90;;;11.45;;
14153;SDS011;7157;53.144;7.570;2023-03-18T10:19:33;23.92;;;12.05;;
14153;SDS011;7157;53.144;7.570;2023-03-18T10:29:39;20.80;;;11.80;;
14153;SDS011;7157;53.144;7.570;2023-03-18T10:39:49;21.13;;;12.07;;
14153;SDS011;7157;53.144;7.570;2023-03-18T10:49:58;19.02;;;11.55;;
14153;SDS011;7157;53.144;7.570;2023-03-18T11:00:08;21.88;;;12.43;;
14153;SDS011;7157;53.144;7.570;2023-03-18T11:10:27;18.00;;;12.38;;
14153;SDS011;7157;53.144;7.570;2023-03-18T11:20:38;28.10;;;13.35;;
14153;SDS011;7157;53.144;7.570;2023-03-18T11:30:46;20.63;;;11.98;;
14153;SDS011;7157;53.144;7.570;2023-03-18T11:40:53;18.73;;;10.00;;
14153;SDS011;7157;53.144;7.570;2023-03-18T11:51:12;13.27;;;6.97;;
14153;SDS011;7157;53.144;7.570;2023-03-18T12:01:29;11.73;;;6.37;;
14153;SDS011;7157;53.144;7.570;2023-03-18T12:11:44;10.77;;;5.68;;
14153;SDS011;7157;53.144;7.570;2023-03-18T12:22:03;8.07;;;4.57;;
14153;SDS011;7157;53.144;7.570;2023-03-18T12:32:21;9.63;;;6.15;;
14153;SDS011;7157;53.144;7.570;2023-03-18T12:52:47;8.68;;;4.68;;
14153;SDS011;7157;53.144;7.570;2023-03-18T13:02:57;9.15;;;4.45;;
14153;SDS011;7157;53.144;7.570;2023-03-18T13:13:08;6.43;;;4.03;;
14153;SDS011;7157;53.144;7.570;2023-03-18T13:23:26;7.97;;;4.43;;
14153;SDS011;7157;53.144;7.570;2023-03-18T13:34:03;7.85;;;4.65;;
14153;SDS011;7157;53.144;7.570;2023-03-18T13:44:21;6.15;;;4.00;;
14153;SDS011;7157;53.144;7.570;2023-03-18T13:54:31;7.07;;;3.70;;
14153;SDS011;7157;53.144;7.570;2023-03-18T14:04:44;7.90;;;3.78;;
14153;SDS011;7157;53.144;7.570;2023-03-18T14:25:21;10.20;;;4.63;;
14153;SDS011;7157;53.144;7.570;2023-03-18T14:35:45;8.90;;;4.10;;
14153;SDS011;7157;53.144;7.570;2023-03-18T14:45:51;7.70;;;4.55;;
14153;SDS011;7157;53.144;7.570;2023-03-18T14:55:59;7.43;;;4.43;;
14153;SDS011;7157;53.144;7.570;2023-03-18T15:06:05;12.07;;;5.07;;
14153;SDS011;7157;53.144;7.570;2023-03-18T15:16:09;6.88;;;4.20;;
14153;SDS011;7157;53.144;7.570;2023-03-18T15:26:17;9.73;;;3.95;;
14153;SDS011;7157;53.144;7.570;2023-03-18T15:36:22;10.05;;;4.20;;
14153;SDS011;7157;53.144;7.570;2023-03-18T15:46:27;8.82;;;4.50;;
14153;SDS011;7157;53.144;7.570;2023-03-18T15:56:32;8.93;;;4.07;;
14153;SDS011;7157;53.144;7.570;2023-03-18T16:06:37;5.90;;;3.90;;
14153;SDS011;7157;53.144;7.570;2023-03-18T16:16:40;9.30;;;4.32;;
14153;SDS011;7157;53.144;7.570;2023-03-18T16:26:45;9.85;;;5.00;;
14153;SDS011;7157;53.144;7.570;2023-03-18T16:36:48;7.82;;;4.30;;
14153;SDS011;7157;53.144;7.570;2023-03-18T16:46:54;9.00;;;4.22;;
14153;SDS011;7157;53.144;7.570;2023-03-18T16:56:59;10.05;;;5.40;;
14153;SDS011;7157;53.144;7.570;2023-03-18T17:07:05;10.25;;;4.30;;
14153;SDS011;7157;53.144;7.570;2023-03-18T17:17:10;10.32;;;4.88;;
14153;SDS011;7157;53.144;7.570;2023-03-18T17:27:20;20.00;;;9.97;;
14153;SDS011;7157;53.144;7.570;2023-03-18T17:37:26;12.23;;;5.80;;
14153;SDS011;7157;53.144;7.570;2023-03-18T17:47:30;14.68;;;5.22;;
14153;SDS011;7157;53.144;7.570;2023-03-18T17:57:33;13.13;;;5.15;;
14153;SDS011;7157;53.144;7.570;2023-03-18T18:07:40;13.82;;;7.35;;
14153;SDS011;7157;53.144;7.570;2023-03-18T18:17:45;9.57;;;3.15;;
14153;SDS011;7157;53.144;7.570;2023-03-18T18:27:50;4.15;;;1.50;;
14153;SDS011;7157;53.144;7.570;2023-03-18T18:37:53;2.58;;;1.20;;
14153;SDS011;7157;53.144;7.570;2023-03-18T18:59:20;2.65;;;1.27;;
14153;SDS011;7157;53.144;7.570;2023-03-18T19:09:27;2.63;;;1.13;;
14153;SDS011;7157;53.144;7.570;2023-03-18T19:19:32;3.50;;;1.80;;
14153;SDS011;7157;53.144;7.570;2023-03-18T19:29:35;3.65;;;1.70;;
14153;SDS011;7157;53.144;7.570;2023-03-18T19:39:42;13.75;;;5.18;;
14153;SDS011;7157;53.144;7.570;2023-03-18T19:49:46;5.28;;;2.67;;
14153;SDS011;7157;53.144;7.570;2023-03-18T19:59:51;7.25;;;3.95;;
14153;SDS011;7157;53.144;7.570;2023-03-18T20:09:55;7.28;;;3.85;;
14153;SDS011;7157;53.144;7.570;2023-03-18T20:19:59;6.13;;;2.95;;
14153;SDS011;7157;53.144;7.570;2023-03-18T20:30:04;5.40;;;2.95;;
14153;SDS011;7157;53.144;7.570;2023-03-18T20:40:20;5.30;;;3.13;;
14153;SDS011;7157;53.144;7.570;2023-03-18T20:50:25;6.68;;;2.97;;
14153;SDS011;7157;53.144;7.570;2023-03-18T21:00:31;5.45;;;3.45;;
14153;SDS011;7157;53.144;7.570;2023-03-18T21:10:34;6.60;;;3.20;;
14153;SDS011;7157;53.144;7.570;2023-03-18T21:20:38;7.90;;;4.15;;
14153;SDS011;7157;53.144;7.570;2023-03-18T21:30:42;7.03;;;4.25;;
14153;SDS011;7157;53.144;7.570;2023-03-18T21:40:47;10.52;;;5.40;;
14153;SDS011;7157;53.144;7.570;2023-03-18T21:50:49;10.82;;;6.00;;
14153;SDS011;7157;53.144;7.570;2023-03-18T22:00:54;11.10;;;6.05;;
14153;SDS011;7157;53.144;7.570;2023-03-18T22:10:58;12.02;;;5.88;;
14153;SDS011;7157;53.144;7.570;2023-03-18T22:21:04;14.57;;;7.00;;
14153;SDS011;7157;53.144;7.570;2023-03-18T22:31:16;12.13;;;7.35;;
14153;SDS011;7157;53.144;7.570;2023-03-18T22:41:23;14.15;;;7.93;;
14153;SDS011;7157;53.144;7.570;2023-03-18T22:51:29;16.00;;;9.57;;
14153;SDS011;7157;53.144;7.570;2023-03-18T23:01:37;18.13;;;10.48;;
14153;SDS011;7157;53.144;7.570;2023-03-18T23:11:39;16.83;;;10.38;;
14153;SDS011;7157;53.144;7.570;2023-03-18T23:21:43;18.20;;;9.73;;
14153;SDS011;7157;53.144;7.570;2023-03-18T23:31:46;16.83;;;9.65;;
14153;SDS011;7157;53.144;7.570;2023-03-18T23:41:50;16.58;;;9.50;;
14153;SDS011;7157;53.144;7.570;2023-03-18T23:51:53;12.57;;;8.13;;
